sensor_id;sensor_type;location;lat;lon;timestamp;P1;durP1;ratioP1;P2;durP2;ratioP2
13785;SDS011;47474;48.824;9.384;2022-12-18T00:02:03;41.73;;;23.17;;
13785;SDS011;47474;48.824;9.384;2022-12-18T00:04:30;43.40;;;22.10;;
13785;SDS011;47474;48.824;9.384;2022-12-18T00:06:56;38.40;;;20.80;;
13785;SDS011;47474;48.824;9.384;2022-12-18T00:09:23;40.57;;;20.67;;
13785;SDS011;47474;48.824;9.384;2022-12-18T00:11:51;41.20;;;19.70;;
13785;SDS011;47474;48.824;9.384;2022-12-18T00:14:17;36.80;;;21.80;;
13785;SDS011;47474;48.824;9.384;2022-12-18T00:16:44;42.00;;;22.97;;
13785;SDS011;47474;48.824;9.384;2022-12-18T00:19:12;44.10;;;24.70;;
13785;SDS011;47474;48.824;9.384;2022-12-18T00:21:39;39.77;;;23.63;;
13785;SDS011;47474;48.824;9.384;2022-12-18T00:24:06;41.57;;;22.60;;
13785;SDS011;47474;48.824;9.384;2022-12-18T00:26:33;43.97;;;23.27;;
13785;SDS011;47474;48.824;9.384;2022-12-18T00:29:03;39.93;;;23.03;;
13785;SDS011;47474;48.824;9.384;2022-12-18T00:31:31;41.50;;;23.93;;
13785;SDS011;47474;48.824;9.384;2022-12-18T00:33:58;44.27;;;22.50;;
13785;SDS011;47474;48.824;9.384;2022-12-18T00:36:25;40.43;;;20.83;;
13785;SDS011;47474;48.824;9.384;2022-12-18T00:38:53;40.57;;;21.87;;
13785;SDS011;47474;48.824;9.384;2022-12-18T00:41:21;38.97;;;21.10;;
13785;SDS011;47474;48.824;9.384;2022-12-18T00:44:03;42.20;;;21.87;;
13785;SDS011;47474;48.824;9.384;2022-12-18T00:46:30;42.20;;;22.53;;
13785;SDS011;47474;48.824;9.384;2022-12-18T00:48:57;41.77;;;23.00;;
13785;SDS011;47474;48.824;9.384;2022-12-18T00:51:24;34.80;;;20.30;;
13785;SDS011;47474;48.824;9.384;2022-12-18T00:53:51;36.00;;;21.07;;
13785;SDS011;47474;48.824;9.384;2022-12-18T00:56:18;37.03;;;21.53;;
13785;SDS011;47474;48.824;9.384;2022-12-18T00:58:45;40.43;;;21.77;;
13785;SDS011;47474;48.824;9.384;2022-12-18T01:01:13;45.63;;;22.63;;
13785;SDS011;47474;48.824;9.384;2022-12-18T01:03:39;40.03;;;22.07;;
13785;SDS011;47474;48.824;9.384;2022-12-18T01:06:06;39.60;;;21.30;;
13785;SDS011;47474;48.824;9.384;2022-12-18T01:08:34;41.53;;;22.33;;
13785;SDS011;47474;48.824;9.384;2022-12-18T01:11:00;44.80;;;21.23;;
13785;SDS011;47474;48.824;9.384;2022-12-18T01:13:27;43.23;;;23.67;;
13785;SDS011;47474;48.824;9.384;2022-12-18T01:15:54;36.93;;;21.57;;
13785;SDS011;47474;48.824;9.384;2022-12-18T01:18:22;37.87;;;20.93;;
13785;SDS011;47474;48.824;9.384;2022-12-18T01:20:48;40.00;;;20.87;;
13785;SDS011;47474;48.824;9.384;2022-12-18T01:23:15;41.97;;;22.43;;
13785;SDS011;47474;48.824;9.384;2022-12-18T01:25:42;46.17;;;20.93;;
13785;SDS011;47474;48.824;9.384;2022-12-18T01:28:08;34.97;;;20.93;;
13785;SDS011;47474;48.824;9.384;2022-12-18T01:30:36;36.73;;;20.57;;
13785;SDS011;47474;48.824;9.384;2022-12-18T01:33:03;40.93;;;21.73;;
13785;SDS011;47474;48.824;9.384;2022-12-18T01:35:32;40.80;;;19.47;;
13785;SDS011;47474;48.824;9.384;2022-12-18T01:37:58;40.10;;;22.97;;
13785;SDS011;47474;48.824;9.384;2022-12-18T01:40:25;41.50;;;21.30;;
13785;SDS011;47474;48.824;9.384;2022-12-18T01:42:52;36.27;;;20.70;;
13785;SDS011;47474;48.824;9.384;2022-12-18T01:45:23;36.90;;;20.93;;
13785;SDS011;47474;48.824;9.384;2022-12-18T01:47:52;43.63;;;22.30;;
13785;SDS011;47474;48.824;9.384;2022-12-18T01:50:20;40.77;;;21.33;;
13785;SDS011;47474;48.824;9.384;2022-12-18T01:52:50;32.10;;;19.90;;
13785;SDS011;47474;48.824;9.384;2022-12-18T01:55:19;34.63;;;19.03;;
13785;SDS011;47474;48.824;9.384;2022-12-18T01:57:47;33.10;;;20.13;;
13785;SDS011;47474;48.824;9.384;2022-12-18T02:00:17;32.03;;;18.90;;
13785;SDS011;47474;48.824;9.384;2022-12-18T02:02:46;40.10;;;20.07;;
13785;SDS011;47474;48.824;9.384;2022-12-18T02:05:14;32.13;;;19.00;;
13785;SDS011;47474;48.824;9.384;2022-12-18T02:07:44;34.33;;;19.17;;
13785;SDS011;47474;48.824;9.384;2022-12-18T02:10:17;39.30;;;19.80;;
13785;SDS011;47474;48.824;9.384;2022-12-18T02:12:48;37.17;;;18.47;;
13785;SDS011;47474;48.824;9.384;2022-12-18T02:15:17;34.63;;;18.37;;
13785;SDS011;47474;48.824;9.384;2022-12-18T02:17:47;41.70;;;20.27;;
13785;SDS011;47474;48.824;9.384;2022-12-18T02:20:18;31.20;;;19.10;;
13785;SDS011;47474;48.824;9.384;2022-12-18T02:22:52;27.50;;;18.03;;
13785;SDS011;47474;48.824;9.384;2022-12-18T02:25:28;32.43;;;19.17;;
13785;SDS011;47474;48.824;9.384;2022-12-18T02:28:08;30.93;;;17.53;;
13785;SDS011;47474;48.824;9.384;2022-12-18T02:30:37;38.80;;;17.13;;
13785;SDS011;47474;48.824;9.384;2022-12-18T02:33:06;32.70;;;16.50;;
13785;SDS011;47474;48.824;9.384;2022-12-18T02:35:34;27.27;;;15.67;;
13785;SDS011;47474;48.824;9.384;2022-12-18T02:38:02;29.33;;;16.43;;
13785;SDS011;47474;48.824;9.384;2022-12-18T02:40:29;29.83;;;17.40;;
13785;SDS011;47474;48.824;9.384;2022-12-18T02:43:01;25.00;;;15.40;;
13785;SDS011;47474;48.824;9.384;2022-12-18T02:45:30;28.07;;;15.53;;
13785;SDS011;47474;48.824;9.384;2022-12-18T02:47:57;30.47;;;17.20;;
13785;SDS011;47474;48.824;9.384;2022-12-18T02:50:26;35.53;;;17.10;;
13785;SDS011;47474;48.824;9.384;2022-12-18T02:53:00;34.90;;;17.37;;
13785;SDS011;47474;48.824;9.384;2022-12-18T02:55:33;27.63;;;16.23;;
13785;SDS011;47474;48.824;9.384;2022-12-18T02:58:08;32.60;;;15.93;;
13785;SDS011;47474;48.824;9.384;2022-12-18T03:00:41;26.57;;;17.40;;
13785;SDS011;47474;48.824;9.384;2022-12-18T03:03:10;26.50;;;16.20;;
13785;SDS011;47474;48.824;9.384;2022-12-18T03:05:41;25.20;;;15.67;;
13785;SDS011;47474;48.824;9.384;2022-12-18T03:08:12;32.07;;;14.93;;
13785;SDS011;47474;48.824;9.384;2022-12-18T03:10:42;29.27;;;16.57;;
13785;SDS011;47474;48.824;9.384;2022-12-18T03:13:11;28.67;;;17.50;;
13785;SDS011;47474;48.824;9.384;2022-12-18T03:15:42;28.13;;;15.83;;
13785;SDS011;47474;48.824;9.384;2022-12-18T03:18:12;26.30;;;15.43;;
13785;SDS011;47474;48.824;9.384;2022-12-18T03:20:42;25.03;;;15.07;;
13785;SDS011;47474;48.824;9.384;2022-12-18T03:23:11;26.97;;;15.50;;
13785;SDS011;47474;48.824;9.384;2022-12-18T03:25:40;28.27;;;15.43;;
13785;SDS011;47474;48.824;9.384;2022-12-18T03:28:09;22.47;;;13.73;;
13785;SDS011;47474;48.824;9.384;2022-12-18T03:30:39;28.40;;;14.30;;
13785;SDS011;47474;48.824;9.384;2022-12-18T03:33:10;30.30;;;15.80;;
13785;SDS011;47474;48.824;9.384;2022-12-18T03:35:43;26.60;;;14.60;;
13785;SDS011;47474;48.824;9.384;2022-12-18T03:38:10;27.60;;;15.57;;
13785;SDS011;47474;48.824;9.384;2022-12-18T03:40:40;23.73;;;13.77;;
13785;SDS011;47474;48.824;9.384;2022-12-18T03:43:15;23.03;;;14.30;;
13785;SDS011;47474;48.824;9.384;2022-12-18T03:45:48;32.37;;;16.60;;
13785;SDS011;47474;48.824;9.384;2022-12-18T03:48:18;28.30;;;14.43;;
13785;SDS011;47474;48.824;9.384;2022-12-18T03:50:46;30.13;;;17.60;;
13785;SDS011;47474;48.824;9.384;2022-12-18T03:53:19;26.63;;;15.53;;
13785;SDS011;47474;48.824;9.384;2022-12-18T03:55:49;29.23;;;16.17;;
13785;SDS011;47474;48.824;9.384;2022-12-18T03:58:19;30.87;;;15.80;;
13785;SDS011;47474;48.824;9.384;2022-12-18T04:00:48;32.10;;;14.60;;
13785;SDS011;47474;48.824;9.384;2022-12-18T04:03:17;21.70;;;14.50;;
13785;SDS011;47474;48.824;9.384;2022-12-18T04:05:44;27.87;;;15.37;;
13785;SDS011;47474;48.824;9.384;2022-12-18T04:08:12;23.77;;;14.43;;
13785;SDS011;47474;48.824;9.384;2022-12-18T04:10:39;22.30;;;13.07;;
13785;SDS011;47474;48.824;9.384;2022-12-18T04:13:06;27.87;;;13.50;;
13785;SDS011;47474;48.824;9.384;2022-12-18T04:15:33;23.10;;;13.17;;
13785;SDS011;47474;48.824;9.384;2022-12-18T04:18:02;27.40;;;14.77;;
13785;SDS011;47474;48.824;9.384;2022-12-18T04:20:29;22.20;;;13.97;;
13785;SDS011;47474;48.824;9.384;2022-12-18T04:22:56;25.27;;;15.93;;
13785;SDS011;47474;48.824;9.384;2022-12-18T04:25:22;29.90;;;16.23;;
13785;SDS011;47474;48.824;9.384;2022-12-18T04:27:49;26.50;;;12.57;;
13785;SDS011;47474;48.824;9.384;2022-12-18T04:30:16;21.00;;;13.03;;
13785;SDS011;47474;48.824;9.384;2022-12-18T04:32:42;22.57;;;12.90;;
13785;SDS011;47474;48.824;9.384;2022-12-18T04:35:10;25.27;;;12.80;;
13785;SDS011;47474;48.824;9.384;2022-12-18T04:37:37;22.17;;;11.87;;
13785;SDS011;47474;48.824;9.384;2022-12-18T04:40:04;24.23;;;14.03;;
13785;SDS011;47474;48.824;9.384;2022-12-18T04:42:32;21.90;;;12.10;;
13785;SDS011;47474;48.824;9.384;2022-12-18T04:44:58;25.37;;;13.07;;
13785;SDS011;47474;48.824;9.384;2022-12-18T04:47:25;25.70;;;13.60;;
13785;SDS011;47474;48.824;9.384;2022-12-18T04:49:52;28.20;;;13.80;;
13785;SDS011;47474;48.824;9.384;2022-12-18T04:52:20;24.77;;;14.13;;
13785;SDS011;47474;48.824;9.384;2022-12-18T04:54:46;24.37;;;13.93;;
13785;SDS011;47474;48.824;9.384;2022-12-18T04:57:13;26.17;;;14.37;;
13785;SDS011;47474;48.824;9.384;2022-12-18T04:59:40;25.10;;;14.80;;
13785;SDS011;47474;48.824;9.384;2022-12-18T05:02:06;29.90;;;14.07;;
13785;SDS011;47474;48.824;9.384;2022-12-18T05:04:33;26.83;;;14.97;;
13785;SDS011;47474;48.824;9.384;2022-12-18T05:06:59;22.50;;;14.83;;
13785;SDS011;47474;48.824;9.384;2022-12-18T05:09:27;26.13;;;15.10;;
13785;SDS011;47474;48.824;9.384;2022-12-18T05:11:54;29.73;;;16.10;;
13785;SDS011;47474;48.824;9.384;2022-12-18T05:14:21;23.27;;;14.83;;
13785;SDS011;47474;48.824;9.384;2022-12-18T05:16:48;22.30;;;11.83;;
13785;SDS011;47474;48.824;9.384;2022-12-18T05:19:15;23.27;;;11.77;;
13785;SDS011;47474;48.824;9.384;2022-12-18T05:21:41;21.80;;;12.37;;
13785;SDS011;47474;48.824;9.384;2022-12-18T05:24:08;23.93;;;11.60;;
13785;SDS011;47474;48.824;9.384;2022-12-18T05:26:36;20.03;;;12.43;;
13785;SDS011;47474;48.824;9.384;2022-12-18T05:29:03;20.53;;;12.00;;
13785;SDS011;47474;48.824;9.384;2022-12-18T05:31:29;21.23;;;11.10;;
13785;SDS011;47474;48.824;9.384;2022-12-18T05:33:57;22.03;;;12.70;;
13785;SDS011;47474;48.824;9.384;2022-12-18T05:36:24;21.00;;;12.30;;
13785;SDS011;47474;48.824;9.384;2022-12-18T05:38:50;25.83;;;12.37;;
13785;SDS011;47474;48.824;9.384;2022-12-18T05:41:17;27.87;;;13.97;;
13785;SDS011;47474;48.824;9.384;2022-12-18T05:43:45;25.53;;;12.40;;
13785;SDS011;47474;48.824;9.384;2022-12-18T05:46:13;23.63;;;13.77;;
13785;SDS011;47474;48.824;9.384;2022-12-18T05:48:41;23.00;;;13.03;;
13785;SDS011;47474;48.824;9.384;2022-12-18T05:51:08;22.87;;;11.63;;
13785;SDS011;47474;48.824;9.384;2022-12-18T05:53:36;22.20;;;12.33;;
13785;SDS011;47474;48.824;9.384;2022-12-18T05:56:04;24.03;;;13.53;;
13785;SDS011;47474;48.824;9.384;2022-12-18T05:58:32;20.17;;;11.80;;
13785;SDS011;47474;48.824;9.384;2022-12-18T06:01:06;21.90;;;12.27;;
13785;SDS011;47474;48.824;9.384;2022-12-18T06:03:34;24.53;;;13.47;;
13785;SDS011;47474;48.824;9.384;2022-12-18T06:06:01;24.33;;;12.40;;
13785;SDS011;47474;48.824;9.384;2022-12-18T06:08:28;24.80;;;12.53;;
13785;SDS011;47474;48.824;9.384;2022-12-18T06:10:54;25.83;;;13.77;;
13785;SDS011;47474;48.824;9.384;2022-12-18T06:13:21;25.17;;;13.27;;
13785;SDS011;47474;48.824;9.384;2022-12-18T06:15:47;21.53;;;12.87;;
13785;SDS011;47474;48.824;9.384;2022-12-18T06:18:15;23.00;;;11.87;;
13785;SDS011;47474;48.824;9.384;2022-12-18T06:20:42;23.93;;;13.33;;
13785;SDS011;47474;48.824;9.384;2022-12-18T06:23:09;24.27;;;12.40;;
13785;SDS011;47474;48.824;9.384;2022-12-18T06:25:37;24.13;;;13.00;;
13785;SDS011;47474;48.824;9.384;2022-12-18T06:28:04;25.33;;;14.13;;
13785;SDS011;47474;48.824;9.384;2022-12-18T06:30:31;29.43;;;15.13;;
13785;SDS011;47474;48.824;9.384;2022-12-18T06:32:58;24.83;;;14.27;;
13785;SDS011;47474;48.824;9.384;2022-12-18T06:35:26;25.93;;;15.47;;
13785;SDS011;47474;48.824;9.384;2022-12-18T06:37:52;30.17;;;15.47;;
13785;SDS011;47474;48.824;9.384;2022-12-18T06:40:19;30.23;;;14.93;;
13785;SDS011;47474;48.824;9.384;2022-12-18T06:42:45;28.50;;;15.80;;
13785;SDS011;47474;48.824;9.384;2022-12-18T06:45:12;22.60;;;14.67;;
13785;SDS011;47474;48.824;9.384;2022-12-18T06:47:41;29.03;;;15.73;;
13785;SDS011;47474;48.824;9.384;2022-12-18T06:50:08;47.00;;;21.57;;
13785;SDS011;47474;48.824;9.384;2022-12-18T06:52:36;34.60;;;20.37;;
13785;SDS011;47474;48.824;9.384;2022-12-18T06:55:04;36.70;;;17.70;;
13785;SDS011;47474;48.824;9.384;2022-12-18T06:57:31;42.13;;;19.50;;
13785;SDS011;47474;48.824;9.384;2022-12-18T06:59:58;39.07;;;16.07;;
13785;SDS011;47474;48.824;9.384;2022-12-18T07:02:25;26.87;;;15.60;;
13785;SDS011;47474;48.824;9.384;2022-12-18T07:04:51;41.57;;;16.77;;
13785;SDS011;47474;48.824;9.384;2022-12-18T07:07:18;27.17;;;14.33;;
13785;SDS011;47474;48.824;9.384;2022-12-18T07:09:46;31.53;;;17.17;;
13785;SDS011;47474;48.824;9.384;2022-12-18T07:12:14;31.10;;;17.20;;
13785;SDS011;47474;48.824;9.384;2022-12-18T07:14:40;28.07;;;15.73;;
13785;SDS011;47474;48.824;9.384;2022-12-18T07:17:07;32.47;;;14.37;;
13785;SDS011;47474;48.824;9.384;2022-12-18T07:19:34;28.93;;;15.70;;
13785;SDS011;47474;48.824;9.384;2022-12-18T07:22:01;22.20;;;14.67;;
13785;SDS011;47474;48.824;9.384;2022-12-18T07:24:27;29.40;;;16.00;;
13785;SDS011;47474;48.824;9.384;2022-12-18T07:26:55;37.20;;;15.83;;
13785;SDS011;47474;48.824;9.384;2022-12-18T07:29:22;31.30;;;16.83;;
13785;SDS011;47474;48.824;9.384;2022-12-18T07:31:49;27.33;;;15.07;;
13785;SDS011;47474;48.824;9.384;2022-12-18T07:34:16;34.37;;;15.97;;
13785;SDS011;47474;48.824;9.384;2022-12-18T07:36:42;25.80;;;14.33;;
13785;SDS011;47474;48.824;9.384;2022-12-18T07:39:10;31.03;;;17.10;;
13785;SDS011;47474;48.824;9.384;2022-12-18T07:41:37;34.37;;;16.30;;
13785;SDS011;47474;48.824;9.384;2022-12-18T07:44:09;29.93;;;16.87;;
13785;SDS011;47474;48.824;9.384;2022-12-18T07:46:36;30.67;;;15.93;;
13785;SDS011;47474;48.824;9.384;2022-12-18T07:49:03;31.90;;;17.43;;
13785;SDS011;47474;48.824;9.384;2022-12-18T07:51:30;35.83;;;17.30;;
13785;SDS011;47474;48.824;9.384;2022-12-18T07:53:57;29.27;;;16.13;;
13785;SDS011;47474;48.824;9.384;2022-12-18T07:56:23;33.40;;;18.37;;
13785;SDS011;47474;48.824;9.384;2022-12-18T07:58:50;33.33;;;17.23;;
13785;SDS011;47474;48.824;9.384;2022-12-18T08:01:18;34.63;;;16.90;;
13785;SDS011;47474;48.824;9.384;2022-12-18T08:03:45;31.63;;;16.20;;
13785;SDS011;47474;48.824;9.384;2022-12-18T08:06:11;34.20;;;16.50;;
13785;SDS011;47474;48.824;9.384;2022-12-18T08:08:38;26.70;;;15.50;;
13785;SDS011;47474;48.824;9.384;2022-12-18T08:11:06;30.13;;;15.17;;
13785;SDS011;47474;48.824;9.384;2022-12-18T08:13:32;26.13;;;15.13;;
13785;SDS011;47474;48.824;9.384;2022-12-18T08:16:00;33.87;;;17.47;;
13785;SDS011;47474;48.824;9.384;2022-12-18T08:18:29;29.70;;;16.43;;
13785;SDS011;47474;48.824;9.384;2022-12-18T08:20:56;27.67;;;14.87;;
13785;SDS011;47474;48.824;9.384;2022-12-18T08:23:22;30.17;;;16.77;;
13785;SDS011;47474;48.824;9.384;2022-12-18T08:25:49;30.83;;;15.83;;
13785;SDS011;47474;48.824;9.384;2022-12-18T08:28:16;26.30;;;16.17;;
13785;SDS011;47474;48.824;9.384;2022-12-18T08:30:43;32.03;;;17.17;;
13785;SDS011;47474;48.824;9.384;2022-12-18T08:33:09;30.57;;;16.07;;
13785;SDS011;47474;48.824;9.384;2022-12-18T08:35:37;30.97;;;15.43;;
13785;SDS011;47474;48.824;9.384;2022-12-18T08:38:04;27.33;;;16.40;;
13785;SDS011;47474;48.824;9.384;2022-12-18T08:40:30;32.80;;;17.50;;
13785;SDS011;47474;48.824;9.384;2022-12-18T08:42:57;30.07;;;16.90;;
13785;SDS011;47474;48.824;9.384;2022-12-18T08:45:41;32.07;;;16.07;;
13785;SDS011;47474;48.824;9.384;2022-12-18T08:48:08;26.00;;;15.93;;
13785;SDS011;47474;48.824;9.384;2022-12-18T08:50:34;28.97;;;15.87;;
13785;SDS011;47474;48.824;9.384;2022-12-18T08:53:02;40.07;;;18.30;;
13785;SDS011;47474;48.824;9.384;2022-12-18T08:55:29;44.03;;;24.30;;
13785;SDS011;47474;48.824;9.384;2022-12-18T08:57:56;37.13;;;20.53;;
13785;SDS011;47474;48.824;9.384;2022-12-18T09:00:22;36.43;;;18.33;;
13785;SDS011;47474;48.824;9.384;2022-12-18T09:02:49;31.67;;;15.37;;
13785;SDS011;47474;48.824;9.384;2022-12-18T09:05:15;26.93;;;15.33;;
13785;SDS011;47474;48.824;9.384;2022-12-18T09:07:42;27.57;;;15.87;;
13785;SDS011;47474;48.824;9.384;2022-12-18T09:10:10;32.27;;;16.43;;
13785;SDS011;47474;48.824;9.384;2022-12-18T09:12:37;31.23;;;15.40;;
13785;SDS011;47474;48.824;9.384;2022-12-18T09:15:04;31.07;;;15.47;;
13785;SDS011;47474;48.824;9.384;2022-12-18T09:17:31;29.00;;;15.30;;
13785;SDS011;47474;48.824;9.384;2022-12-18T09:19:57;33.17;;;16.20;;
13785;SDS011;47474;48.824;9.384;2022-12-18T09:22:24;32.97;;;16.87;;
13785;SDS011;47474;48.824;9.384;2022-12-18T09:24:50;30.33;;;17.20;;
13785;SDS011;47474;48.824;9.384;2022-12-18T09:27:18;36.77;;;18.00;;
13785;SDS011;47474;48.824;9.384;2022-12-18T09:29:45;33.73;;;17.80;;
13785;SDS011;47474;48.824;9.384;2022-12-18T09:32:11;34.03;;;17.10;;
13785;SDS011;47474;48.824;9.384;2022-12-18T09:34:38;34.77;;;18.50;;
13785;SDS011;47474;48.824;9.384;2022-12-18T09:37:05;32.83;;;16.70;;
13785;SDS011;47474;48.824;9.384;2022-12-18T09:39:31;35.13;;;17.37;;
13785;SDS011;47474;48.824;9.384;2022-12-18T09:41:58;42.50;;;18.93;;
13785;SDS011;47474;48.824;9.384;2022-12-18T09:44:26;35.50;;;17.83;;
13785;SDS011;47474;48.824;9.384;2022-12-18T09:46:57;33.17;;;18.37;;
13785;SDS011;47474;48.824;9.384;2022-12-18T09:49:27;40.20;;;17.57;;
13785;SDS011;47474;48.824;9.384;2022-12-18T09:51:56;34.70;;;16.37;;
13785;SDS011;47474;48.824;9.384;2022-12-18T09:54:26;41.17;;;19.03;;
13785;SDS011;47474;48.824;9.384;2022-12-18T09:56:57;44.80;;;19.60;;
13785;SDS011;47474;48.824;9.384;2022-12-18T09:59:25;45.97;;;19.40;;
13785;SDS011;47474;48.824;9.384;2022-12-18T10:01:56;46.90;;;21.30;;
13785;SDS011;47474;48.824;9.384;2022-12-18T10:04:23;35.20;;;18.23;;
13785;SDS011;47474;48.824;9.384;2022-12-18T10:06:52;32.87;;;17.27;;
13785;SDS011;47474;48.824;9.384;2022-12-18T10:09:24;40.43;;;19.43;;
13785;SDS011;47474;48.824;9.384;2022-12-18T10:11:56;42.30;;;18.53;;
13785;SDS011;47474;48.824;9.384;2022-12-18T10:14:32;37.33;;;18.43;;
13785;SDS011;47474;48.824;9.384;2022-12-18T10:17:03;30.23;;;17.63;;
13785;SDS011;47474;48.824;9.384;2022-12-18T10:19:37;41.10;;;18.67;;
13785;SDS011;47474;48.824;9.384;2022-12-18T10:22:10;41.03;;;18.10;;
13785;SDS011;47474;48.824;9.384;2022-12-18T10:24:42;39.30;;;19.03;;
13785;SDS011;47474;48.824;9.384;2022-12-18T10:27:14;35.80;;;17.67;;
13785;SDS011;47474;48.824;9.384;2022-12-18T10:29:43;39.50;;;17.60;;
13785;SDS011;47474;48.824;9.384;2022-12-18T10:32:13;39.17;;;18.50;;
13785;SDS011;47474;48.824;9.384;2022-12-18T10:34:40;36.17;;;19.10;;
13785;SDS011;47474;48.824;9.384;2022-12-18T10:37:09;33.73;;;18.13;;
13785;SDS011;47474;48.824;9.384;2022-12-18T10:39:42;32.53;;;17.10;;
13785;SDS011;47474;48.824;9.384;2022-12-18T10:42:09;30.83;;;16.97;;
13785;SDS011;47474;48.824;9.384;2022-12-18T10:44:38;34.53;;;17.50;;
13785;SDS011;47474;48.824;9.384;2022-12-18T10:47:06;38.33;;;17.33;;
13785;SDS011;47474;48.824;9.384;2022-12-18T10:49:37;37.83;;;17.57;;
13785;SDS011;47474;48.824;9.384;2022-12-18T10:52:11;35.03;;;16.43;;
13785;SDS011;47474;48.824;9.384;2022-12-18T10:54:45;40.90;;;19.97;;
13785;SDS011;47474;48.824;9.384;2022-12-18T10:57:14;40.70;;;19.30;;
13785;SDS011;47474;48.824;9.384;2022-12-18T10:59:50;34.77;;;17.60;;
13785;SDS011;47474;48.824;9.384;2022-12-18T11:02:26;32.87;;;17.23;;
13785;SDS011;47474;48.824;9.384;2022-12-18T11:05:02;29.04;;;13.96;;
13785;SDS011;47474;48.824;9.384;2022-12-18T11:07:46;34.90;;;17.23;;
13785;SDS011;47474;48.824;9.384;2022-12-18T11:10:15;30.20;;;16.37;;
13785;SDS011;47474;48.824;9.384;2022-12-18T11:12:43;33.47;;;16.30;;
13785;SDS011;47474;48.824;9.384;2022-12-18T11:15:13;30.93;;;15.70;;
13785;SDS011;47474;48.824;9.384;2022-12-18T11:17:43;29.30;;;15.20;;
13785;SDS011;47474;48.824;9.384;2022-12-18T11:20:19;34.13;;;17.00;;
13785;SDS011;47474;48.824;9.384;2022-12-18T11:22:54;32.40;;;16.40;;
13785;SDS011;47474;48.824;9.384;2022-12-18T11:25:22;31.63;;;15.00;;
13785;SDS011;47474;48.824;9.384;2022-12-18T11:27:49;33.90;;;15.17;;
13785;SDS011;47474;48.824;9.384;2022-12-18T11:30:20;39.60;;;15.07;;
13785;SDS011;47474;48.824;9.384;2022-12-18T11:32:49;31.70;;;16.90;;
13785;SDS011;47474;48.824;9.384;2022-12-18T11:35:18;34.40;;;16.80;;
13785;SDS011;47474;48.824;9.384;2022-12-18T11:37:47;33.20;;;15.90;;
13785;SDS011;47474;48.824;9.384;2022-12-18T11:40:16;32.13;;;15.77;;
13785;SDS011;47474;48.824;9.384;2022-12-18T11:42:45;33.93;;;16.27;;
13785;SDS011;47474;48.824;9.384;2022-12-18T11:45:25;31.40;;;15.77;;
13785;SDS011;47474;48.824;9.384;2022-12-18T11:47:56;37.73;;;16.67;;
13785;SDS011;47474;48.824;9.384;2022-12-18T11:50:26;27.67;;;15.67;;
13785;SDS011;47474;48.824;9.384;2022-12-18T11:52:56;31.40;;;15.00;;
13785;SDS011;47474;48.824;9.384;2022-12-18T11:55:25;32.63;;;16.90;;
13785;SDS011;47474;48.824;9.384;2022-12-18T11:57:56;32.20;;;14.97;;
13785;SDS011;47474;48.824;9.384;2022-12-18T12:00:26;31.73;;;15.87;;
13785;SDS011;47474;48.824;9.384;2022-12-18T12:06:07;30.83;;;14.90;;
13785;SDS011;47474;48.824;9.384;2022-12-18T12:09:00;27.37;;;13.26;;
13785;SDS011;47474;48.824;9.384;2022-12-18T12:11:45;35.28;;;15.88;;
13785;SDS011;47474;48.824;9.384;2022-12-18T12:14:37;23.48;;;13.94;;
13785;SDS011;47474;48.824;9.384;2022-12-18T12:17:10;31.47;;;16.53;;
13785;SDS011;47474;48.824;9.384;2022-12-18T12:19:44;33.47;;;15.77;;
13785;SDS011;47474;48.824;9.384;2022-12-18T12:22:17;29.87;;;14.47;;
13785;SDS011;47474;48.824;9.384;2022-12-18T12:24:51;30.23;;;14.63;;
13785;SDS011;47474;48.824;9.384;2022-12-18T12:27:26;30.90;;;15.37;;
13785;SDS011;47474;48.824;9.384;2022-12-18T12:30:01;33.03;;;15.47;;
13785;SDS011;47474;48.824;9.384;2022-12-18T12:32:35;31.40;;;15.20;;
13785;SDS011;47474;48.824;9.384;2022-12-18T12:35:15;30.37;;;15.10;;
13785;SDS011;47474;48.824;9.384;2022-12-18T12:37:51;33.70;;;15.33;;
13785;SDS011;47474;48.824;9.384;2022-12-18T12:40:26;30.00;;;15.37;;
13785;SDS011;47474;48.824;9.384;2022-12-18T12:42:54;26.57;;;15.13;;
13785;SDS011;47474;48.824;9.384;2022-12-18T12:45:42;27.40;;;14.60;;
13785;SDS011;47474;48.824;9.384;2022-12-18T12:48:14;24.03;;;14.60;;
13785;SDS011;47474;48.824;9.384;2022-12-18T12:50:45;26.40;;;16.03;;
13785;SDS011;47474;48.824;9.384;2022-12-18T12:53:15;31.17;;;15.80;;
13785;SDS011;47474;48.824;9.384;2022-12-18T12:55:48;32.03;;;15.67;;
13785;SDS011;47474;48.824;9.384;2022-12-18T12:58:16;30.77;;;15.43;;
13785;SDS011;47474;48.824;9.384;2022-12-18T13:00:46;29.53;;;14.83;;
13785;SDS011;47474;48.824;9.384;2022-12-18T13:03:19;32.27;;;15.90;;
13785;SDS011;47474;48.824;9.384;2022-12-18T13:05:55;29.47;;;15.10;;
13785;SDS011;47474;48.824;9.384;2022-12-18T13:08:25;27.23;;;15.13;;
13785;SDS011;47474;48.824;9.384;2022-12-18T13:10:52;29.43;;;16.40;;
13785;SDS011;47474;48.824;9.384;2022-12-18T13:13:48;25.77;;;14.23;;
13785;SDS011;47474;48.824;9.384;2022-12-18T13:16:14;28.00;;;14.87;;
13785;SDS011;47474;48.824;9.384;2022-12-18T13:18:48;28.33;;;16.17;;
13785;SDS011;47474;48.824;9.384;2022-12-18T13:21:18;26.73;;;14.50;;
13785;SDS011;47474;48.824;9.384;2022-12-18T13:23:48;33.37;;;14.87;;
13785;SDS011;47474;48.824;9.384;2022-12-18T13:29:02;32.63;;;16.50;;
13785;SDS011;47474;48.824;9.384;2022-12-18T13:34:28;31.63;;;15.77;;
13785;SDS011;47474;48.824;9.384;2022-12-18T13:36:57;29.23;;;15.53;;
13785;SDS011;47474;48.824;9.384;2022-12-18T13:43:21;29.13;;;14.87;;
13785;SDS011;47474;48.824;9.384;2022-12-18T13:45:58;31.70;;;17.00;;
13785;SDS011;47474;48.824;9.384;2022-12-18T13:48:26;28.27;;;15.30;;
13785;SDS011;47474;48.824;9.384;2022-12-18T13:50:57;29.70;;;15.20;;
13785;SDS011;47474;48.824;9.384;2022-12-18T13:53:28;27.10;;;14.87;;
13785;SDS011;47474;48.824;9.384;2022-12-18T13:55:57;28.63;;;15.90;;
13785;SDS011;47474;48.824;9.384;2022-12-18T13:58:23;28.43;;;15.30;;
13785;SDS011;47474;48.824;9.384;2022-12-18T14:00:50;32.17;;;15.97;;
13785;SDS011;47474;48.824;9.384;2022-12-18T14:03:17;27.17;;;15.20;;
13785;SDS011;47474;48.824;9.384;2022-12-18T14:05:46;30.37;;;15.60;;
13785;SDS011;47474;48.824;9.384;2022-12-18T14:08:19;31.27;;;16.47;;
13785;SDS011;47474;48.824;9.384;2022-12-18T14:10:48;31.10;;;15.97;;
13785;SDS011;47474;48.824;9.384;2022-12-18T14:13:17;31.63;;;16.20;;
13785;SDS011;47474;48.824;9.384;2022-12-18T14:15:47;31.87;;;15.63;;
13785;SDS011;47474;48.824;9.384;2022-12-18T14:18:16;30.97;;;16.37;;
13785;SDS011;47474;48.824;9.384;2022-12-18T14:20:47;30.67;;;16.83;;
13785;SDS011;47474;48.824;9.384;2022-12-18T14:23:28;32.67;;;16.03;;
13785;SDS011;47474;48.824;9.384;2022-12-18T14:25:57;27.57;;;15.37;;
13785;SDS011;47474;48.824;9.384;2022-12-18T14:28:24;36.47;;;17.73;;
13785;SDS011;47474;48.824;9.384;2022-12-18T14:30:51;28.70;;;16.00;;
13785;SDS011;47474;48.824;9.384;2022-12-18T14:33:20;28.37;;;16.33;;
13785;SDS011;47474;48.824;9.384;2022-12-18T14:35:55;36.50;;;17.97;;
13785;SDS011;47474;48.824;9.384;2022-12-18T14:38:24;27.80;;;16.93;;
13785;SDS011;47474;48.824;9.384;2022-12-18T14:40:57;32.07;;;16.00;;
13785;SDS011;47474;48.824;9.384;2022-12-18T14:43:25;29.90;;;16.27;;
13785;SDS011;47474;48.824;9.384;2022-12-18T14:45:52;29.83;;;16.10;;